N2DM KBED-KSYR
Flight info
| Callsign | N2DM |
|---|---|
| Flight time | 1h 5m |
| Altitude | 30000 |
| Route | HYLND MANCH CAM LAMMS T608 SYR |
| Aircraft | TBM9/L-VGDW/C |
Departure
| Time | 2026-04-24 21:33 |
|---|---|
| Airport | Laurence G Hanscom Field (KBED) |
Arrival
| Time | 2026-04-24 22:38 |
|---|---|
| Airport | Syracuse Hancock International Airport (KSYR) |
| Time | Latitude | Longitude | Altitude | Speed | Heading |
|---|---|---|---|---|---|
| 2026-04-24 21:12 | 42.46256 | -71.28975 | 131 ft | 0 kts | 246° |
| 2026-04-24 21:27 | 42.46256 | -71.28977 | 128 ft | 1 kts | 262° |
| 2026-04-24 21:27 | 42.46264 | -71.28992 | 131 ft | 5 kts | 352° |
| 2026-04-24 21:27 | 42.46319 | -71.28989 | 131 ft | 10 kts | 355° |
| 2026-04-24 21:27 | 42.46370 | -71.29034 | 132 ft | 10 kts | 301° |
| 2026-04-24 21:28 | 42.46384 | -71.29132 | 133 ft | 11 kts | 282° |
| 2026-04-24 21:28 | 42.46419 | -71.29222 | 133 ft | 10 kts | 282° |
| 2026-04-24 21:28 | 42.46370 | -71.29300 | 133 ft | 13 kts | 217° |
| 2026-04-24 21:28 | 42.46290 | -71.29383 | 132 ft | 15 kts | 218° |
| 2026-04-24 21:29 | 42.46238 | -71.29445 | 133 ft | 8 kts | 250° |
| 2026-04-24 21:29 | 42.46264 | -71.29520 | 132 ft | 11 kts | 308° |
| 2026-04-24 21:29 | 42.46320 | -71.29620 | 129 ft | 15 kts | 307° |
| 2026-04-24 21:29 | 42.46394 | -71.29732 | 130 ft | 17 kts | 337° |
| 2026-04-24 21:30 | 42.46516 | -71.29798 | 128 ft | 20 kts | 338° |
| 2026-04-24 21:30 | 42.46648 | -71.29870 | 132 ft | 21 kts | 339° |
| 2026-04-24 21:30 | 42.46756 | -71.29928 | 132 ft | 16 kts | 339° |
| 2026-04-24 21:30 | 42.46862 | -71.29985 | 135 ft | 17 kts | 338° |
| 2026-04-24 21:31 | 42.46971 | -71.30038 | 137 ft | 15 kts | 358° |
| 2026-04-24 21:31 | 42.47060 | -71.30026 | 137 ft | 11 kts | 8° |
| 2026-04-24 21:31 | 42.47085 | -71.30022 | 137 ft | 0 kts | 8° |
| 2026-04-24 21:31 | 42.47092 | -71.30020 | 137 ft | 4 kts | 6° |
| 2026-04-24 21:32 | 42.47127 | -71.30016 | 137 ft | 6 kts | 4° |
| 2026-04-24 21:32 | 42.47174 | -71.30002 | 138 ft | 7 kts | 48° |
| 2026-04-24 21:32 | 42.47180 | -71.29978 | 139 ft | 0 kts | 92° |
| 2026-04-24 21:33 | 42.47170 | -71.29878 | 139 ft | 40 kts | 98° |
| 2026-04-24 21:33 | 42.47110 | -71.29181 | 235 ft | 99 kts | 96° |
| 2026-04-24 21:33 | 42.47004 | -71.28138 | 646 ft | 123 kts | 99° |
| 2026-04-24 21:33 | 42.46943 | -71.26868 | 1123 ft | 147 kts | 80° |
| 2026-04-24 21:34 | 42.47428 | -71.25634 | 1719 ft | 154 kts | 45° |
| 2026-04-24 21:34 | 42.48351 | -71.24800 | 2052 ft | 166 kts | 33° |
| 2026-04-24 21:34 | 42.49375 | -71.23808 | 2006 ft | 193 kts | 37° |
| 2026-04-24 21:34 | 42.50500 | -71.22684 | 2002 ft | 209 kts | 37° |
| 2026-04-24 21:35 | 42.51698 | -71.21480 | 2006 ft | 218 kts | 37° |
| 2026-04-24 21:35 | 42.53029 | -71.20507 | 1988 ft | 225 kts | 15° |
| 2026-04-24 21:35 | 42.54597 | -71.20572 | 1988 ft | 230 kts | 344° |
| 2026-04-24 21:35 | 42.56063 | -71.21388 | 2292 ft | 218 kts | 339° |
| 2026-04-24 21:36 | 42.57433 | -71.21965 | 3173 ft | 193 kts | 347° |
| 2026-04-24 21:36 | 42.58649 | -71.22290 | 4238 ft | 167 kts | 348° |
| 2026-04-24 21:36 | 42.59708 | -71.22571 | 5356 ft | 145 kts | 347° |
| 2026-04-24 21:36 | 42.60649 | -71.22829 | 6356 ft | 132 kts | 346° |
| 2026-04-24 21:37 | 42.61507 | -71.23063 | 7207 ft | 122 kts | 346° |
| 2026-04-24 21:37 | 42.62327 | -71.23286 | 7985 ft | 118 kts | 346° |
| 2026-04-24 21:37 | 42.63142 | -71.23506 | 8701 ft | 119 kts | 346° |
| 2026-04-24 21:37 | 42.63946 | -71.23722 | 9440 ft | 118 kts | 346° |
| 2026-04-24 21:38 | 42.64758 | -71.23940 | 10139 ft | 118 kts | 346° |
| 2026-04-24 21:38 | 42.65552 | -71.24153 | 10795 ft | 117 kts | 346° |
| 2026-04-24 21:38 | 42.66351 | -71.24366 | 11477 ft | 116 kts | 346° |
| 2026-04-24 21:38 | 42.67149 | -71.24580 | 12055 ft | 123 kts | 346° |
| 2026-04-24 21:39 | 42.68067 | -71.24825 | 12421 ft | 145 kts | 346° |
| 2026-04-24 21:39 | 42.69069 | -71.25086 | 13065 ft | 145 kts | 346° |
| 2026-04-24 21:39 | 42.70060 | -71.25352 | 13792 ft | 144 kts | 346° |
| 2026-04-24 21:39 | 42.71038 | -71.25617 | 14375 ft | 144 kts | 345° |
| 2026-04-24 21:40 | 42.72029 | -71.25885 | 14987 ft | 145 kts | 345° |
| 2026-04-24 21:40 | 42.73009 | -71.26150 | 15596 ft | 145 kts | 345° |
| 2026-04-24 21:40 | 42.73999 | -71.26418 | 16222 ft | 145 kts | 345° |
| 2026-04-24 21:40 | 42.74993 | -71.26687 | 16843 ft | 145 kts | 345° |
| 2026-04-24 21:41 | 42.75988 | -71.26956 | 17471 ft | 146 kts | 345° |
| 2026-04-24 21:41 | 42.76974 | -71.27226 | 18126 ft | 146 kts | 343° |
| 2026-04-24 21:41 | 42.77935 | -71.27666 | 18713 ft | 145 kts | 335° |
| 2026-04-24 21:41 | 42.78834 | -71.28326 | 19285 ft | 146 kts | 328° |
| 2026-04-24 21:42 | 42.79645 | -71.29154 | 19877 ft | 147 kts | 324° |
| 2026-04-24 21:42 | 42.80464 | -71.30006 | 20475 ft | 148 kts | 324° |
| 2026-04-24 21:42 | 42.81274 | -71.30848 | 21032 ft | 148 kts | 324° |
| 2026-04-24 21:42 | 42.82098 | -71.31708 | 21633 ft | 149 kts | 324° |
| 2026-04-24 21:43 | 42.82927 | -71.32574 | 22254 ft | 150 kts | 324° |
| 2026-04-24 21:43 | 42.83747 | -71.33432 | 22841 ft | 151 kts | 324° |
| 2026-04-24 21:43 | 42.84618 | -71.34346 | 23129 ft | 168 kts | 322° |
| 2026-04-24 21:43 | 42.85504 | -71.35534 | 23132 ft | 191 kts | 315° |
| 2026-04-24 21:44 | 42.86302 | -71.37061 | 23413 ft | 201 kts | 307° |
| 2026-04-24 21:44 | 42.86907 | -71.38800 | 23794 ft | 206 kts | 299° |
| 2026-04-24 21:44 | 42.87281 | -71.40728 | 24127 ft | 214 kts | 290° |
| 2026-04-24 21:44 | 42.87436 | -71.42781 | 24481 ft | 218 kts | 286° |
| 2026-04-24 21:45 | 42.87579 | -71.44824 | 24820 ft | 219 kts | 287° |
| 2026-04-24 21:45 | 42.87730 | -71.46905 | 25162 ft | 221 kts | 287° |
| 2026-04-24 21:45 | 42.87880 | -71.49001 | 25494 ft | 222 kts | 287° |
| 2026-04-24 21:45 | 42.88026 | -71.51088 | 25836 ft | 224 kts | 286° |
| 2026-04-24 21:46 | 42.88175 | -71.53217 | 26175 ft | 225 kts | 286° |
| 2026-04-24 21:46 | 42.88325 | -71.55357 | 26516 ft | 227 kts | 286° |
| 2026-04-24 21:46 | 42.88475 | -71.57508 | 26872 ft | 228 kts | 286° |
| 2026-04-24 21:46 | 42.88625 | -71.59647 | 27193 ft | 230 kts | 286° |
| 2026-04-24 21:47 | 42.88777 | -71.61837 | 27525 ft | 232 kts | 286° |
| 2026-04-24 21:47 | 42.88878 | -71.63294 | 27741 ft | 233 kts | 286° |
| 2026-04-24 21:47 | 42.89081 | -71.66220 | 28150 ft | 235 kts | 285° |
| 2026-04-24 21:47 | 42.89234 | -71.68446 | 28442 ft | 236 kts | 285° |
| 2026-04-24 21:48 | 42.89389 | -71.70689 | 28773 ft | 238 kts | 285° |
| 2026-04-24 21:48 | 42.89543 | -71.72953 | 29136 ft | 240 kts | 285° |
| 2026-04-24 21:48 | 42.89696 | -71.75196 | 29470 ft | 242 kts | 285° |
| 2026-04-24 21:48 | 42.89854 | -71.77494 | 29797 ft | 243 kts | 285° |
| 2026-04-24 21:49 | 42.90016 | -71.79831 | 29911 ft | 252 kts | 285° |
| 2026-04-24 21:49 | 42.90183 | -71.82233 | 29903 ft | 261 kts | 285° |
| 2026-04-24 21:49 | 42.90353 | -71.84742 | 29911 ft | 268 kts | 284° |
| 2026-04-24 21:49 | 42.90521 | -71.87277 | 29917 ft | 273 kts | 284° |
| 2026-04-24 21:50 | 42.90696 | -71.89896 | 29917 ft | 277 kts | 284° |
| 2026-04-24 21:50 | 42.90871 | -71.92528 | 29918 ft | 278 kts | 284° |
| 2026-04-24 21:50 | 42.91043 | -71.95125 | 29913 ft | 278 kts | 284° |
| 2026-04-24 21:50 | 42.91218 | -71.97771 | 29909 ft | 278 kts | 284° |
| 2026-04-24 21:51 | 42.91391 | -72.00376 | 29907 ft | 279 kts | 284° |
| 2026-04-24 21:51 | 42.91567 | -72.03046 | 29901 ft | 279 kts | 284° |
| 2026-04-24 21:51 | 42.91738 | -72.05653 | 29901 ft | 279 kts | 284° |
| 2026-04-24 21:51 | 42.91911 | -72.08301 | 29894 ft | 280 kts | 284° |
| 2026-04-24 21:52 | 42.92084 | -72.10955 | 29896 ft | 280 kts | 284° |
| 2026-04-24 21:52 | 42.92254 | -72.13575 | 29901 ft | 280 kts | 284° |
| 2026-04-24 21:52 | 42.92426 | -72.16228 | 29898 ft | 280 kts | 284° |
| 2026-04-24 21:52 | 42.92596 | -72.18857 | 29902 ft | 280 kts | 284° |
| 2026-04-24 21:53 | 42.92766 | -72.21509 | 29899 ft | 280 kts | 284° |
| 2026-04-24 21:53 | 42.92934 | -72.24152 | 29895 ft | 275 kts | 284° |
| 2026-04-24 21:53 | 42.93094 | -72.26712 | 29897 ft | 267 kts | 284° |
| 2026-04-24 21:53 | 42.93250 | -72.29203 | 29894 ft | 260 kts | 284° |
| 2026-04-24 21:54 | 42.93404 | -72.31623 | 29899 ft | 256 kts | 284° |
| 2026-04-24 21:54 | 42.93558 | -72.34036 | 29896 ft | 253 kts | 284° |
| 2026-04-24 21:54 | 42.93706 | -72.36389 | 29898 ft | 250 kts | 284° |
| 2026-04-24 21:54 | 42.93855 | -72.38754 | 29897 ft | 249 kts | 284° |
| 2026-04-24 21:55 | 42.94003 | -72.41120 | 29895 ft | 248 kts | 284° |
| 2026-04-24 21:55 | 42.94148 | -72.43438 | 29898 ft | 247 kts | 284° |
| 2026-04-24 21:55 | 42.94293 | -72.45777 | 29901 ft | 247 kts | 284° |
| 2026-04-24 21:55 | 42.94436 | -72.48089 | 29903 ft | 246 kts | 284° |
| 2026-04-24 21:56 | 42.94581 | -72.50430 | 29901 ft | 247 kts | 284° |
| 2026-04-24 21:56 | 42.94723 | -72.52743 | 29903 ft | 247 kts | 284° |
| 2026-04-24 21:56 | 42.94866 | -72.55078 | 29902 ft | 246 kts | 284° |
| 2026-04-24 21:56 | 42.95009 | -72.57416 | 29906 ft | 246 kts | 284° |
| 2026-04-24 21:57 | 42.95151 | -72.59750 | 29906 ft | 246 kts | 284° |
| 2026-04-24 21:57 | 42.95291 | -72.62052 | 29908 ft | 245 kts | 284° |
| 2026-04-24 21:57 | 42.95432 | -72.64390 | 29909 ft | 245 kts | 284° |
| 2026-04-24 21:57 | 42.95570 | -72.66681 | 29906 ft | 244 kts | 284° |
| 2026-04-24 21:58 | 42.95708 | -72.68998 | 29908 ft | 244 kts | 284° |
| 2026-04-24 21:58 | 42.95848 | -72.71309 | 29909 ft | 244 kts | 284° |
| 2026-04-24 21:58 | 42.95985 | -72.73622 | 29910 ft | 244 kts | 284° |
| 2026-04-24 21:58 | 42.96121 | -72.75914 | 29915 ft | 244 kts | 284° |
| 2026-04-24 21:59 | 42.96259 | -72.78227 | 29916 ft | 243 kts | 284° |
| 2026-04-24 21:59 | 42.96393 | -72.80500 | 29914 ft | 242 kts | 284° |
| 2026-04-24 21:59 | 42.96527 | -72.82801 | 29914 ft | 242 kts | 284° |
| 2026-04-24 21:59 | 42.96662 | -72.85088 | 29919 ft | 241 kts | 284° |
| 2026-04-24 22:00 | 42.96796 | -72.87373 | 29917 ft | 242 kts | 284° |
| 2026-04-24 22:00 | 42.96930 | -72.89670 | 29917 ft | 241 kts | 284° |
| 2026-04-24 22:00 | 42.97060 | -72.91927 | 29920 ft | 241 kts | 284° |
| 2026-04-24 22:00 | 42.97194 | -72.94224 | 29920 ft | 242 kts | 284° |
| 2026-04-24 22:01 | 42.97326 | -72.96521 | 29922 ft | 242 kts | 284° |
| 2026-04-24 22:01 | 42.97455 | -72.98785 | 29921 ft | 242 kts | 284° |
| 2026-04-24 22:01 | 42.97587 | -73.01070 | 29922 ft | 241 kts | 284° |
| 2026-04-24 22:01 | 42.97717 | -73.03356 | 29928 ft | 241 kts | 284° |
| 2026-04-24 22:02 | 42.97847 | -73.05642 | 29923 ft | 241 kts | 284° |
| 2026-04-24 22:02 | 42.97975 | -73.07919 | 29930 ft | 241 kts | 284° |
| 2026-04-24 22:02 | 42.98105 | -73.10204 | 29925 ft | 241 kts | 285° |
| 2026-04-24 22:02 | 42.98235 | -73.12491 | 29926 ft | 241 kts | 284° |
| 2026-04-24 22:03 | 42.98363 | -73.14788 | 29928 ft | 242 kts | 284° |
| 2026-04-24 22:03 | 42.98490 | -73.17065 | 29922 ft | 242 kts | 284° |
| 2026-04-24 22:03 | 42.98616 | -73.19363 | 29923 ft | 241 kts | 284° |
| 2026-04-24 22:03 | 42.98743 | -73.21625 | 29924 ft | 240 kts | 285° |
| 2026-04-24 22:04 | 42.98868 | -73.23895 | 29934 ft | 239 kts | 285° |
| 2026-04-24 22:04 | 42.98993 | -73.26169 | 29929 ft | 240 kts | 285° |
| 2026-04-24 22:04 | 42.99117 | -73.28417 | 29926 ft | 240 kts | 285° |
| 2026-04-24 22:04 | 42.99240 | -73.30679 | 29933 ft | 237 kts | 285° |
| 2026-04-24 22:05 | 42.99362 | -73.32933 | 29929 ft | 237 kts | 285° |
| 2026-04-24 22:05 | 42.99466 | -73.35194 | 29920 ft | 239 kts | 283° |
| 2026-04-24 22:05 | 42.99518 | -73.37465 | 29924 ft | 239 kts | 283° |
| 2026-04-24 22:05 | 42.99576 | -73.39706 | 29925 ft | 238 kts | 284° |
| 2026-04-24 22:06 | 42.99635 | -73.41976 | 29923 ft | 238 kts | 284° |
| 2026-04-24 22:06 | 42.99690 | -73.44242 | 29928 ft | 238 kts | 284° |
| 2026-04-24 22:06 | 42.99745 | -73.46481 | 29921 ft | 237 kts | 284° |
| 2026-04-24 22:06 | 42.99801 | -73.48737 | 29924 ft | 236 kts | 284° |
| 2026-04-24 22:07 | 42.99854 | -73.50962 | 29923 ft | 236 kts | 284° |
| 2026-04-24 22:07 | 42.99909 | -73.53217 | 29925 ft | 241 kts | 284° |
| 2026-04-24 22:07 | 42.99972 | -73.55567 | 29928 ft | 253 kts | 284° |
| 2026-04-24 22:07 | 43.00033 | -73.57995 | 29937 ft | 262 kts | 284° |
| 2026-04-24 22:08 | 43.00091 | -73.60498 | 29938 ft | 268 kts | 283° |
| 2026-04-24 22:08 | 43.00149 | -73.63082 | 29939 ft | 272 kts | 283° |
| 2026-04-24 22:08 | 43.00206 | -73.65653 | 29938 ft | 273 kts | 283° |
| 2026-04-24 22:08 | 43.00263 | -73.68242 | 29933 ft | 273 kts | 284° |
| 2026-04-24 22:09 | 43.00321 | -73.70840 | 29931 ft | 272 kts | 284° |
| 2026-04-24 22:09 | 43.00378 | -73.73421 | 29924 ft | 271 kts | 284° |
| 2026-04-24 22:09 | 43.00435 | -73.75974 | 29920 ft | 271 kts | 284° |
| 2026-04-24 22:09 | 43.00492 | -73.78564 | 29918 ft | 270 kts | 284° |
| 2026-04-24 22:10 | 43.00547 | -73.81099 | 29914 ft | 270 kts | 284° |
| 2026-04-24 22:10 | 43.00602 | -73.83667 | 29914 ft | 269 kts | 284° |
| 2026-04-24 22:10 | 43.00656 | -73.86224 | 29914 ft | 269 kts | 284° |
| 2026-04-24 22:10 | 43.00709 | -73.88783 | 29916 ft | 268 kts | 285° |
| 2026-04-24 22:11 | 43.00762 | -73.91298 | 29911 ft | 267 kts | 285° |
| 2026-04-24 22:11 | 43.00815 | -73.93854 | 29917 ft | 267 kts | 285° |
| 2026-04-24 22:11 | 43.00848 | -73.95533 | 29918 ft | 267 kts | 285° |
| 2026-04-24 22:11 | 43.00917 | -73.98895 | 29911 ft | 266 kts | 285° |
| 2026-04-24 22:12 | 43.00951 | -74.00573 | 29910 ft | 266 kts | 285° |
| 2026-04-24 22:12 | 43.01000 | -74.03100 | 29900 ft | 262 kts | 285° |
| 2026-04-24 22:12 | 43.01037 | -74.05514 | 29515 ft | 239 kts | 285° |
| 2026-04-24 22:12 | 43.01068 | -74.07691 | 29134 ft | 225 kts | 287° |
| 2026-04-24 22:13 | 43.01116 | -74.09794 | 28760 ft | 218 kts | 287° |
| 2026-04-24 22:13 | 43.01162 | -74.11846 | 28386 ft | 216 kts | 287° |
| 2026-04-24 22:13 | 43.01214 | -74.13966 | 28033 ft | 229 kts | 287° |
| 2026-04-24 22:13 | 43.01261 | -74.16194 | 27695 ft | 239 kts | 286° |
| 2026-04-24 22:14 | 43.01299 | -74.18472 | 27362 ft | 244 kts | 285° |
| 2026-04-24 22:14 | 43.01337 | -74.20803 | 27025 ft | 245 kts | 285° |
| 2026-04-24 22:14 | 43.01377 | -74.23145 | 26695 ft | 246 kts | 285° |
| 2026-04-24 22:14 | 43.01418 | -74.25490 | 26364 ft | 246 kts | 285° |
| 2026-04-24 22:15 | 43.01460 | -74.27798 | 26038 ft | 246 kts | 285° |
| 2026-04-24 22:15 | 43.01501 | -74.30140 | 25715 ft | 245 kts | 285° |
| 2026-04-24 22:15 | 43.01541 | -74.32480 | 25393 ft | 245 kts | 285° |
| 2026-04-24 22:15 | 43.01579 | -74.34779 | 25078 ft | 244 kts | 285° |
| 2026-04-24 22:16 | 43.01619 | -74.37111 | 24761 ft | 243 kts | 285° |
| 2026-04-24 22:16 | 43.01656 | -74.39401 | 24449 ft | 242 kts | 285° |
| 2026-04-24 22:16 | 43.01693 | -74.41712 | 24142 ft | 242 kts | 285° |
| 2026-04-24 22:16 | 43.01732 | -74.44011 | 23839 ft | 241 kts | 284° |
| 2026-04-24 22:17 | 43.01768 | -74.46276 | 23544 ft | 241 kts | 284° |
| 2026-04-24 22:17 | 43.01804 | -74.48548 | 23198 ft | 240 kts | 284° |
| 2026-04-24 22:17 | 43.01839 | -74.50836 | 22842 ft | 239 kts | 284° |
| 2026-04-24 22:17 | 43.01874 | -74.53118 | 22484 ft | 239 kts | 284° |
| 2026-04-24 22:18 | 43.01909 | -74.55388 | 22135 ft | 238 kts | 284° |
| 2026-04-24 22:18 | 43.01942 | -74.57631 | 21789 ft | 238 kts | 284° |
| 2026-04-24 22:18 | 43.01979 | -74.59894 | 21454 ft | 236 kts | 284° |
| 2026-04-24 22:18 | 43.02010 | -74.62122 | 21113 ft | 236 kts | 283° |
| 2026-04-24 22:19 | 43.02039 | -74.64371 | 20782 ft | 235 kts | 283° |
| 2026-04-24 22:19 | 43.02071 | -74.66577 | 20456 ft | 235 kts | 283° |
| 2026-04-24 22:19 | 43.02103 | -74.68814 | 20128 ft | 234 kts | 283° |
| 2026-04-24 22:19 | 43.02134 | -74.71039 | 19805 ft | 234 kts | 283° |
| 2026-04-24 22:20 | 43.02164 | -74.73238 | 19491 ft | 233 kts | 283° |
| 2026-04-24 22:20 | 43.02194 | -74.75462 | 19177 ft | 232 kts | 283° |
| 2026-04-24 22:20 | 43.02223 | -74.77653 | 18866 ft | 232 kts | 282° |
| 2026-04-24 22:20 | 43.02252 | -74.79860 | 18554 ft | 231 kts | 282° |
| 2026-04-24 22:21 | 43.02282 | -74.82069 | 18250 ft | 231 kts | 282° |
| 2026-04-24 22:21 | 43.02308 | -74.84239 | 17908 ft | 230 kts | 282° |
| 2026-04-24 22:21 | 43.02335 | -74.86428 | 17558 ft | 230 kts | 282° |
| 2026-04-24 22:21 | 43.02363 | -74.88611 | 17205 ft | 229 kts | 282° |
| 2026-04-24 22:22 | 43.02389 | -74.90787 | 16863 ft | 228 kts | 282° |
| 2026-04-24 22:22 | 43.02415 | -74.92961 | 16525 ft | 228 kts | 281° |
| 2026-04-24 22:22 | 43.02441 | -74.95097 | 16194 ft | 227 kts | 282° |
| 2026-04-24 22:22 | 43.02465 | -74.97261 | 15862 ft | 227 kts | 281° |
| 2026-04-24 22:23 | 43.02489 | -74.99419 | 15534 ft | 226 kts | 281° |
| 2026-04-24 22:23 | 43.02513 | -75.01541 | 15214 ft | 226 kts | 281° |
| 2026-04-24 22:23 | 43.02541 | -75.03730 | 14894 ft | 232 kts | 281° |
| 2026-04-24 22:23 | 43.02571 | -75.05953 | 14580 ft | 239 kts | 281° |
| 2026-04-24 22:24 | 43.02594 | -75.08252 | 14274 ft | 242 kts | 281° |
| 2026-04-24 22:24 | 43.02616 | -75.10544 | 13968 ft | 244 kts | 280° |
| 2026-04-24 22:24 | 43.02639 | -75.12868 | 13651 ft | 244 kts | 280° |
| 2026-04-24 22:24 | 43.02661 | -75.15194 | 13302 ft | 244 kts | 280° |
| 2026-04-24 22:25 | 43.02804 | -75.17446 | 12965 ft | 238 kts | 288° |
| 2026-04-24 22:25 | 43.03121 | -75.19654 | 12637 ft | 237 kts | 288° |
| 2026-04-24 22:25 | 43.03406 | -75.21885 | 12298 ft | 238 kts | 287° |
| 2026-04-24 22:25 | 43.03696 | -75.24120 | 11964 ft | 238 kts | 288° |
| 2026-04-24 22:26 | 43.03995 | -75.26352 | 11634 ft | 238 kts | 288° |
| 2026-04-24 22:26 | 43.04290 | -75.28551 | 11308 ft | 237 kts | 287° |
| 2026-04-24 22:26 | 43.04583 | -75.30771 | 10987 ft | 238 kts | 287° |
| 2026-04-24 22:26 | 43.04881 | -75.33012 | 10666 ft | 240 kts | 287° |
| 2026-04-24 22:27 | 43.05179 | -75.35258 | 10347 ft | 239 kts | 287° |
| 2026-04-24 22:27 | 43.05469 | -75.37487 | 10031 ft | 236 kts | 287° |
| 2026-04-24 22:27 | 43.05751 | -75.39649 | 9709 ft | 232 kts | 287° |
| 2026-04-24 22:27 | 43.06037 | -75.41828 | 9360 ft | 231 kts | 287° |
| 2026-04-24 22:28 | 43.06324 | -75.43998 | 9014 ft | 231 kts | 286° |
| 2026-04-24 22:28 | 43.06606 | -75.46143 | 8674 ft | 232 kts | 286° |
| 2026-04-24 22:28 | 43.06892 | -75.48327 | 8334 ft | 233 kts | 286° |
| 2026-04-24 22:28 | 43.07177 | -75.50508 | 8001 ft | 233 kts | 285° |
| 2026-04-24 22:29 | 43.07746 | -75.54874 | 7349 ft | 236 kts | 285° |
| 2026-04-24 22:29 | 43.08036 | -75.57090 | 7027 ft | 237 kts | 285° |
| 2026-04-24 22:29 | 43.08324 | -75.59322 | 6701 ft | 238 kts | 285° |
| 2026-04-24 22:30 | 43.08614 | -75.61562 | 6385 ft | 239 kts | 285° |
| 2026-04-24 22:30 | 43.08896 | -75.63748 | 6042 ft | 222 kts | 285° |
| 2026-04-24 22:30 | 43.09144 | -75.65758 | 5692 ft | 205 kts | 284° |
| 2026-04-24 22:30 | 43.09379 | -75.67607 | 5351 ft | 196 kts | 285° |
| 2026-04-24 22:31 | 43.09620 | -75.69446 | 5011 ft | 201 kts | 284° |
| 2026-04-24 22:31 | 43.09875 | -75.71381 | 4691 ft | 209 kts | 284° |
| 2026-04-24 22:31 | 43.10132 | -75.73357 | 4347 ft | 211 kts | 283° |
| 2026-04-24 22:31 | 43.10388 | -75.75337 | 4014 ft | 210 kts | 284° |
| 2026-04-24 22:32 | 43.10677 | -75.77268 | 3687 ft | 206 kts | 285° |
| 2026-04-24 22:32 | 43.10989 | -75.79126 | 3357 ft | 196 kts | 286° |
| 2026-04-24 22:32 | 43.11340 | -75.80917 | 3020 ft | 192 kts | 290° |
| 2026-04-24 22:32 | 43.11691 | -75.82674 | 2716 ft | 190 kts | 282° |
| 2026-04-24 22:33 | 43.11736 | -75.84445 | 2707 ft | 184 kts | 273° |
| 2026-04-24 22:33 | 43.11707 | -75.86186 | 2708 ft | 185 kts | 271° |
| 2026-04-24 22:33 | 43.11651 | -75.87951 | 2706 ft | 183 kts | 270° |
| 2026-04-24 22:33 | 43.11588 | -75.89630 | 2709 ft | 171 kts | 270° |
| 2026-04-24 22:34 | 43.11531 | -75.91243 | 2692 ft | 168 kts | 272° |
| 2026-04-24 22:34 | 43.11483 | -75.92801 | 2695 ft | 164 kts | 270° |
| 2026-04-24 22:34 | 43.11430 | -75.94437 | 2581 ft | 181 kts | 271° |
| 2026-04-24 22:34 | 43.11374 | -75.96182 | 2329 ft | 177 kts | 271° |
| 2026-04-24 22:35 | 43.11312 | -75.97831 | 2096 ft | 166 kts | 271° |
| 2026-04-24 22:35 | 43.11265 | -75.99333 | 1873 ft | 141 kts | 271° |
| 2026-04-24 22:35 | 43.11222 | -76.00531 | 1700 ft | 114 kts | 272° |
| 2026-04-24 22:35 | 43.11187 | -76.01576 | 1558 ft | 108 kts | 271° |
| 2026-04-24 22:36 | 43.11157 | -76.02509 | 1420 ft | 85 kts | 272° |
| 2026-04-24 22:36 | 43.11128 | -76.03211 | 1306 ft | 64 kts | 272° |
| 2026-04-24 22:36 | 43.11109 | -76.03830 | 1226 ft | 70 kts | 274° |
| 2026-04-24 22:36 | 43.11076 | -76.04510 | 1100 ft | 78 kts | 268° |
| 2026-04-24 22:37 | 43.11016 | -76.05248 | 1030 ft | 76 kts | 271° |
| 2026-04-24 22:37 | 43.11020 | -76.05950 | 934 ft | 74 kts | 267° |
| 2026-04-24 22:37 | 43.10997 | -76.06653 | 844 ft | 74 kts | 270° |
| 2026-04-24 22:37 | 43.10975 | -76.07388 | 737 ft | 78 kts | 268° |
| 2026-04-24 22:38 | 43.10963 | -76.08121 | 641 ft | 75 kts | 268° |
| 2026-04-24 22:38 | 43.10944 | -76.08824 | 523 ft | 75 kts | 266° |
| 2026-04-24 22:38 | 43.10921 | -76.09501 | 414 ft | 63 kts | 270° |
| 2026-04-24 22:38 | 43.10907 | -76.10012 | 403 ft | 46 kts | 266° |
| 2026-04-24 22:39 | 43.10895 | -76.10387 | 406 ft | 34 kts | 267° |
| 2026-04-24 22:39 | 43.10886 | -76.10674 | 409 ft | 26 kts | 267° |
| 2026-04-24 22:39 | 43.10878 | -76.10901 | 416 ft | 25 kts | 268° |
| 2026-04-24 22:39 | 43.10869 | -76.11167 | 417 ft | 28 kts | 270° |
| 2026-04-24 22:40 | 43.10796 | -76.11299 | 417 ft | 17 kts | 177° |
| 2026-04-24 22:40 | 43.10667 | -76.11291 | 413 ft | 20 kts | 185° |
| 2026-04-24 22:40 | 43.10561 | -76.11388 | 416 ft | 14 kts | 251° |
| 2026-04-24 22:40 | 43.10596 | -76.11459 | 417 ft | 9 kts | 9° |
| 2026-04-24 22:41 | 43.10611 | -76.11422 | 416 ft | 0 kts | 110° |